Time;durP1;ratioP1;P1;durP2;ratioP2;P2;SDS_P1;SDS_P2;PMS_P1;PMS_P2;Temp;Humidity;BMP_temperature;BMP_pressure;BME280_temperature;BME280_humidity;BME280_pressure;Samples;Min_cycle;Max_cycle;Signal;HPM_P1;HPM_P2
2021/11/12 00:12:22;;;;;;;33.50;16.60;;;;;;;-1.04;87.49;98188.59;108175;1272;58942;-69
2021/11/12 00:14:52;;;;;;;100.20;27.10;;;;;;;-1.07;88.75;98185.70;108184;1272;70775;-70
2021/11/12 00:17:30;;;;;;;33.60;14.70;;;;;;;-1.11;88.83;98180.46;108079;1272;68618;-69
2021/11/12 00:20:00;;;;;;;73.70;24.80;;;;;;;-1.12;88.09;98179.29;108147;1272;68379;-70
2021/11/12 00:22:30;;;;;;;;;;;;;;;-1.18;88.86;98177.84;108134;1271;58872;-70
2021/11/12 00:25:02;;;;;;;51.90;20.40;;;;;;;-1.21;88.69;98174.80;108121;1273;58979;-68
2021/11/12 00:27:33;;;;;;;15.60;10.50;;;;;;;-1.23;88.79;98175.50;108057;1273;70958;-70
2021/11/12 00:30:15;;;;;;;74.70;21.90;;;;;;;-1.24;88.34;98171.07;108176;1272;68632;-73
2021/11/12 00:33:05;;;;;;;123.90;26.20;;;;;;;-1.37;88.84;98166.27;108049;1272;68008;-69
2021/11/12 00:35:54;;;;;;;119.90;24.50;;;;;;;-1.49;89.21;98165.93;108197;1271;58891;-69
2021/11/12 00:38:30;;;;;;;84.30;23.40;;;;;;;-1.60;89.67;98167.78;108237;1272;58980;-70
2021/11/12 00:43:54;;;;;;;14.80;9.10;;;;;;;-1.55;89.79;98171.81;107956;1272;68917;-69
2021/11/12 00:46:40;;;;;;;43.80;14.60;;;;;;;-1.50;89.57;98177.91;108131;1272;69270;-68
2021/11/12 00:49:15;;;;;;;13.00;7.90;;;;;;;-1.47;89.39;98173.77;108198;1272;58970;-70
2021/11/12 00:51:52;;;;;;;26.40;15.00;;;;;;;-1.42;88.93;98173.71;108078;1272;58865;-70
2021/11/12 00:54:21;;;;;;;18.10;10.00;;;;;;;-1.39;88.19;98172.29;108051;1271;70078;-70
2021/11/12 00:56:52;;;;;;;18.50;12.00;;;;;;;-1.37;87.72;98175.18;108148;1271;67689;-69
2021/11/12 00:59:21;;;;;;;;;;;;;;;-1.33;87.16;98173.94;108053;1272;69435;-74
2021/11/12 01:01:52;;;;;;;13.10;10.30;;;;;;;-1.35;88.00;98175.67;107994;1274;59358;-69
2021/11/12 01:04:23;;;;;;;32.90;16.00;;;;;;;-1.35;87.64;98174.63;108032;1274;58880;-70
2021/11/12 01:06:52;;;;;;;55.60;21.30;;;;;;;-1.36;87.78;98178.77;108025;1272;69988;-73
2021/11/12 01:09:23;;;;;;;57.70;21.00;;;;;;;-1.38;88.33;98178.95;108194;1272;68438;-71
2021/11/12 01:11:52;;;;;;;14.50;9.90;;;;;;;-1.41;89.17;98181.39;108113;1272;69255;-68
2021/11/12 01:14:25;;;;;;;17.90;10.90;;;;;;;-1.37;88.30;98182.19;108120;1271;58973;-72
2021/11/12 01:16:56;;;;;;;15.70;10.90;;;;;;;-1.36;87.36;98182.02;108107;1272;58894;-68
2021/11/12 01:19:26;;;;;;;46.50;18.10;;;;;;;-1.37;87.05;98180.83;108193;1273;69869;-69
2021/11/12 01:21:56;;;;;;;46.00;20.20;;;;;;;-1.40;87.75;98178.64;108204;1272;68898;-69
2021/11/12 01:24:26;;;;;;;20.80;12.40;;;;;;;-1.41;88.43;98181.04;108273;1269;68423;-70
2021/11/12 01:26:56;;;;;;;30.20;15.30;;;;;;;-1.43;88.16;98178.85;108089;1272;58938;-72
2021/11/12 01:29:27;;;;;;;24.80;14.20;;;;;;;-1.43;87.86;98179.86;108282;1269;58882;-71
2021/11/12 01:31:59;;;;;;;60.30;20.10;;;;;;;-1.40;87.62;98177.95;108175;1272;69581;-70
2021/11/12 01:34:30;;;;;;;42.20;17.20;;;;;;;-1.44;88.22;98173.21;108121;1272;68038;-69
2021/11/12 01:37:00;;;;;;;18.20;11.50;;;;;;;-1.44;87.77;98174.40;108199;1271;68745;-69
2021/11/12 01:39:31;;;;;;;15.10;9.50;;;;;;;-1.46;87.27;98174.96;108116;1272;58964;-69
2021/11/12 01:42:01;;;;;;;25.80;12.50;;;;;;;-1.46;86.90;98170.00;108190;1272;58895;-68
2021/11/12 01:44:41;;;;;;;14.00;9.30;;;;;;;-1.45;86.92;98168.10;107914;1275;69988;-68
2021/11/12 01:47:43;;;;;;;18.00;11.80;;;;;;;-1.48;87.48;98167.45;108084;1274;68159;-68
2021/11/12 01:50:20;;;;;;;49.80;17.30;;;;;;;-1.49;87.19;98166.27;108310;1271;68536;-71
2021/11/12 01:52:56;;;;;;;33.30;14.80;;;;;;;-1.51;87.69;98165.12;108197;1272;58951;-73
2021/11/12 01:55:49;;;;;;;67.70;20.40;;;;;;;-1.52;87.27;98157.24;108130;1272;58852;-72
2021/11/12 01:58:39;;;;;;;19.50;12.80;;;;;;;-1.64;88.43;98155.34;108099;1272;70671;-73
2021/11/12 02:01:08;;;;;;;42.70;16.10;;;;;;;-1.66;88.69;98153.84;108148;1271;67853;-71
2021/11/12 02:03:38;;;;;;;15.80;11.20;;;;;;;-1.67;88.32;98153.84;108107;1271;69635;-70
2021/11/12 02:06:08;;;;;;;92.00;23.10;;;;;;;-1.64;87.54;98159.27;108173;1272;58970;-70
2021/11/12 02:08:38;;;;;;;21.40;12.90;;;;;;;-1.68;87.85;98153.52;108169;1272;58964;-68
2021/11/12 02:11:10;;;;;;;19.30;11.90;;;;;;;-1.65;87.59;98154.15;108129;1272;70638;-73
2021/11/12 02:13:42;;;;;;;19.90;13.20;;;;;;;-1.66;87.04;98154.68;108061;1271;67836;-70
2021/11/12 02:16:16;;;;;;;29.20;15.80;;;;;;;-1.68;87.06;98154.70;108147;1271;69428;-68
2021/11/12 02:18:47;;;;;;;26.70;11.00;;;;;;;-1.65;87.05;98157.42;108060;1272;58915;-70
2021/11/12 02:21:39;;;;;;;30.30;15.10;;;;;;;-1.63;86.90;98158.75;108165;1271;58866;-71
2021/11/12 02:24:11;;;;;;;75.90;21.40;;;;;;;-1.60;87.14;98156.98;108089;1271;70759;-69
2021/11/12 02:26:48;;;;;;;27.20;14.90;;;;;;;-1.57;86.90;98157.14;108116;1272;68095;-70
2021/11/12 02:29:18;;;;;;;17.30;11.90;;;;;;;-1.59;87.01;98159.04;108030;1272;69038;-72
2021/11/12 02:31:48;;;;;;;;;;;;;;;-1.67;87.39;98156.23;108068;1275;58951;-67
2021/11/12 02:34:18;;;;;;;20.20;11.60;;;;;;;-1.69;87.25;98154.72;108205;1272;58912;-68
2021/11/12 02:36:48;;;;;;;19.40;12.00;;;;;;;-1.72;87.21;98155.45;108157;1270;69826;-70
2021/11/12 02:39:18;;;;;;;19.30;12.30;;;;;;;-1.77;87.28;98158.75;107911;1275;68586;-68
2021/11/12 02:41:48;;;;;;;28.80;14.20;;;;;;;-1.78;87.38;98156.71;107948;1272;69345;-71
2021/11/12 02:44:20;;;;;;;19.20;11.70;;;;;;;-1.84;87.82;98156.27;108085;1274;58904;-72
2021/11/12 02:46:49;;;;;;;47.20;17.40;;;;;;;-1.90;88.06;98153.61;108017;1274;58937;-70
2021/11/12 02:49:18;;;;;;;30.60;13.50;;;;;;;-1.95;89.18;98153.83;108083;1271;70576;-71
2021/11/12 02:51:48;;;;;;;15.70;10.80;;;;;;;-1.95;88.94;98152.80;108051;1272;68614;-69
2021/11/12 02:54:17;;;;;;;19.30;11.40;;;;;;;-2.00;88.92;98152.00;108105;1272;68467;-68
2021/11/12 02:56:50;;;;;;;30.80;13.70;;;;;;;-1.99;88.41;98155.75;108045;1275;58932;-69
2021/11/12 02:59:21;;;;;;;48.00;15.90;;;;;;;-2.00;88.30;98158.51;108199;1272;59321;-72
2021/11/12 03:01:51;;;;;;;14.80;11.00;;;;;;;-2.04;88.54;98156.48;108120;1270;70385;-72
2021/11/12 03:04:21;;;;;;;55.00;21.30;;;;;;;-2.02;88.07;98158.86;108021;1272;68027;-71
2021/11/12 03:06:52;;;;;;;29.20;14.40;;;;;;;-2.02;88.96;98162.97;108116;1271;69450;-70
2021/11/12 03:09:27;;;;;;;12.80;9.30;;;;;;;-2.00;89.18;98157.30;108104;1271;58879;-73
2021/11/12 03:11:59;;;;;;;47.20;18.30;;;;;;;-1.98;88.66;98150.80;108029;1274;58902;-74
2021/11/12 03:14:31;;;;;;;14.80;9.50;;;;;;;-2.00;88.49;98149.61;108074;1273;70770;-71
2021/11/12 03:17:03;;;;;;;29.30;14.70;;;;;;;-1.98;87.79;98146.86;108147;1272;66814;-71
2021/11/12 03:19:34;;;;;;;9.40;6.70;;;;;;;-1.99;87.61;98151.82;108079;1275;69326;-69
2021/11/12 03:22:07;;;;;;;12.70;9.50;;;;;;;-1.97;87.53;98152.48;108091;1271;58827;-71
2021/11/12 03:24:43;;;;;;;81.00;20.50;;;;;;;-1.98;87.36;98154.36;108132;1272;58900;-69
2021/11/12 03:30:35;;;;;;;22.90;11.70;;;;;;;-2.05;88.41;98148.66;108159;1272;68463;-69
2021/11/12 03:49:31;;;;;;;16.00;9.40;;;;;;;-2.10;87.23;98151.94;108212;1271;69483;-69
2021/11/12 04:17:23;;;;;;;42.10;16.90;;;;;;;-2.02;87.34;98141.27;108098;1272;58875;-70
2021/11/12 05:10:16;;;;;;;18.70;9.80;;;;;;;-2.14;89.09;98154.19;108075;1272;69013;-71
2021/11/12 05:43:36;;;;;;;18.10;11.20;;;;;;;-2.12;87.35;98163.07;107933;1272;58980;-71
2021/11/12 05:51:37;;;;;;;55.00;19.90;;;;;;;-2.32;87.68;98178.29;108084;1272;69284;-68
2021/11/12 05:56:57;;;;;;;47.00;22.60;;;;;;;-2.26;88.54;98179.78;107836;1277;59135;-70
2021/11/12 05:59:26;;;;;;;16.40;10.10;;;;;;;-2.23;88.69;98179.40;108038;1272;69970;-70
2021/11/12 06:01:55;;;;;;;35.10;19.50;;;;;;;-2.19;88.30;98182.77;108086;1272;68672;-69
2021/11/12 06:04:25;;;;;;;47.50;22.40;;;;;;;-2.16;88.87;98186.85;108055;1273;67846;-71
2021/11/12 06:06:54;;;;;;;43.70;19.40;;;;;;;-2.14;89.07;98184.42;107988;1275;58932;-70
2021/11/12 06:09:24;;;;;;;44.90;20.50;;;;;;;-2.12;89.14;98190.05;107933;1275;58947;-72
2021/11/12 06:11:56;;;;;;;45.50;20.80;;;;;;;-2.10;88.95;98188.83;108030;1272;70816;-71
2021/11/12 06:14:25;;;;;;;51.90;20.30;;;;;;;-2.09;88.56;98188.82;108068;1272;68206;-71
2021/11/12 06:16:55;;;;;;;45.20;20.60;;;;;;;-2.06;88.31;98190.32;108090;1272;69989;-70
2021/11/12 06:19:24;;;;;;;18.80;12.50;;;;;;;-2.08;88.27;98190.52;108012;1271;58850;-70
2021/11/12 06:21:53;;;;;;;21.60;13.70;;;;;;;-2.01;87.76;98193.87;108042;1275;58946;-70
2021/11/12 06:24:22;;;;;;;14.40;10.40;;;;;;;-1.98;87.31;98190.77;108011;1272;70805;-71
2021/11/12 06:26:53;;;;;;;17.00;11.80;;;;;;;-2.02;87.13;98190.30;108055;1272;69053;-70
2021/11/12 06:29:23;;;;;;;17.50;11.80;;;;;;;-2.02;86.89;98191.84;108063;1272;69411;-71
2021/11/12 06:31:52;;;;;;;21.20;12.30;;;;;;;-2.07;86.70;98191.88;108067;1271;58966;-70
2021/11/12 06:34:21;;;;;;;79.70;20.80;;;;;;;-2.14;86.79;98192.45;108118;1271;58925;-70
2021/11/12 06:36:51;;;;;;;110.90;22.30;;;;;;;-2.15;87.10;98192.13;107988;1272;70751;-70
2021/11/12 06:39:20;;;;;;;38.00;16.10;;;;;;;-2.18;86.93;98192.16;108051;1271;68399;-69
2021/11/12 06:49:57;;;;;;;17.70;12.40;;;;;;;-2.00;86.71;98194.03;108135;1272;70874;-69
2021/11/12 06:52:28;;;;;;;16.10;10.80;;;;;;;-1.97;86.99;98189.73;108023;1272;68675;-70
2021/11/12 06:55:01;;;;;;;19.00;11.70;;;;;;;-1.91;86.90;98192.56;108120;1272;69413;-70
2021/11/12 06:57:30;;;;;;;22.30;13.60;;;;;;;-1.86;86.80;98186.54;108155;1272;58968;-70
2021/11/12 06:59:59;;;;;;;19.80;11.50;;;;;;;-1.84;86.77;98186.35;108384;1272;58960;-70
2021/11/12 07:02:28;;;;;;;19.50;11.60;;;;;;;-1.87;86.71;98191.32;108034;1271;71447;-68
2021/11/12 07:04:57;;;;;;;21.30;12.90;;;;;;;-1.81;86.61;98189.55;108084;1272;68663;-68
2021/11/12 07:07:28;;;;;;;13.90;9.10;;;;;;;-1.81;86.67;98189.90;108365;1271;69115;-69
2021/11/12 07:09:56;;;;;;;;;;;;;;;-1.82;86.46;98190.92;108040;1272;59345;-69
2021/11/12 07:12:25;;;;;;;14.70;9.70;;;;;;;-1.79;86.70;98194.48;108066;1272;58883;-72
2021/11/12 07:14:54;;;;;;;16.20;10.10;;;;;;;-1.63;86.72;98192.09;108111;1272;70711;-70
2021/11/12 07:17:23;;;;;;;56.20;19.00;;;;;;;-1.59;85.53;98190.49;108161;1272;68814;-72
2021/11/12 07:19:52;;;;;;;34.30;17.30;;;;;;;-1.71;85.10;98190.47;108010;1274;68691;-71
2021/11/12 07:22:21;;;;;;;18.90;12.10;;;;;;;-1.66;85.47;98188.88;108046;1272;58973;-70
2021/11/12 07:24:50;;;;;;;19.40;12.30;;;;;;;-1.56;85.56;98190.64;108123;1272;58913;-71
2021/11/12 07:27:19;;;;;;;22.20;12.90;;;;;;;-1.45;85.68;98191.02;108154;1272;71370;-72
2021/11/12 07:30:13;;;;;;;35.00;18.50;;;;;;;-1.36;85.23;98190.72;108086;1272;68792;-69
2021/11/12 07:32:46;;;;;;;24.60;14.70;;;;;;;-1.28;85.28;98194.71;108049;1273;69453;-69
2021/11/12 07:35:19;;;;;;;25.70;15.60;;;;;;;-1.16;85.31;98190.11;108012;1272;58967;-73
2021/11/12 07:37:48;;;;;;;27.60;14.80;;;;;;;-1.14;84.93;98190.09;107951;1274;58897;-69
2021/11/12 07:40:24;;;;;;;20.10;13.10;;;;;;;-1.13;84.28;98189.05;108005;1275;70031;-70
2021/11/12 07:45:54;;;;;;;32.30;18.70;;;;;;;-0.98;84.84;98183.02;107799;1276;68766;-72
2021/11/12 07:48:23;;;;;;;;;;;;;;;-0.92;84.30;98182.92;107933;1274;58909;-70
2021/11/12 07:50:52;;;;;;;21.80;13.90;;;;;;;-0.83;84.00;98183.48;108049;1271;59219;-71
2021/11/12 07:53:21;;;;;;;28.50;17.70;;;;;;;-0.78;83.75;98179.81;108036;1271;69963;-72
2021/11/12 07:55:50;;;;;;;18.50;12.80;;;;;;;-0.78;83.71;98177.43;108067;1274;68412;-70
2021/11/12 07:58:21;;;;;;;14.00;9.70;;;;;;;-0.71;84.11;98172.87;108039;1271;69185;-72
2021/11/12 08:00:49;;;;;;;22.60;13.00;;;;;;;-0.64;83.97;98167.27;108070;1272;59720;-68
2021/11/12 08:03:18;;;;;;;40.90;21.50;;;;;;;-0.60;83.54;98163.61;108006;1272;59774;-72
2021/11/12 08:05:51;;;;;;;50.40;23.90;;;;;;;-0.57;83.78;98164.08;108141;1274;70831;-71
2021/11/12 08:08:23;;;;;;;46.50;23.60;;;;;;;-0.59;83.29;98164.29;108074;1271;68806;-71
2021/11/12 08:11:02;;;;;;;38.60;22.60;;;;;;;-0.70;83.21;98163.43;108063;1272;70023;-70
2021/11/12 08:13:40;;;;;;;26.90;16.50;;;;;;;-0.53;83.29;98164.52;107983;1274;59760;-72
2021/11/12 08:19:21;;;;;;;24.00;15.20;;;;;;;-0.29;83.21;98158.98;108005;1274;71743;-71
2021/11/12 08:22:06;;;;;;;36.70;20.30;;;;;;;-0.14;83.20;98154.09;107997;1272;67836;-70
2021/11/12 08:32:51;;;;;;;32.60;18.10;;;;;;;0.27;81.64;98147.30;107841;1275;72453;-72
2021/11/12 08:35:32;;;;;;;20.20;11.60;;;;;;;0.47;82.07;98143.64;108004;1275;68429;-71
2021/11/12 08:41:02;;;;;;;17.00;11.20;;;;;;;0.77;81.09;98138.02;108016;1271;59749;-73
2021/11/12 08:43:45;;;;;;;44.30;23.50;;;;;;;0.88;80.76;98135.56;108081;1272;59665;-70
2021/11/12 08:46:25;;;;;;;28.20;18.30;;;;;;;1.04;80.32;98132.95;108194;1271;71468;-70
2021/11/12 08:49:01;;;;;;;30.50;18.80;;;;;;;1.14;79.77;98130.33;108139;1271;69313;-71
2021/11/12 08:51:37;;;;;;;21.40;14.60;;;;;;;1.22;80.26;98131.16;107883;1275;68258;-70
2021/11/12 08:54:07;;;;;;;21.70;14.60;;;;;;;1.34;79.45;98126.24;107895;1275;59724;-70
2021/11/12 08:56:38;;;;;;;24.20;14.80;;;;;;;1.43;79.87;98124.80;108114;1273;59735;-70
2021/11/12 08:59:07;;;;;;;44.40;25.90;;;;;;;1.52;78.92;98125.08;108141;1275;70809;-71
2021/11/12 09:01:36;;;;;;;26.10;17.70;;;;;;;1.59;78.18;98125.44;108121;1272;68687;-70
2021/11/12 09:04:06;;;;;;;43.20;19.40;;;;;;;1.72;78.27;98125.09;108031;1271;69251;-70
2021/11/12 09:06:35;;;;;;;16.20;11.50;;;;;;;1.66;77.64;98125.61;108130;1272;59795;-70
2021/11/12 09:09:05;;;;;;;56.00;23.10;;;;;;;1.61;77.95;98124.88;108216;1272;59674;-69
2021/11/12 09:11:34;;;;;;;21.60;14.20;;;;;;;1.49;77.84;98124.14;108047;1271;71616;-71
2021/11/12 09:14:06;;;;;;;18.90;13.40;;;;;;;1.53;78.09;98123.70;108148;1272;67855;-71
2021/11/12 09:16:37;;;;;;;22.40;14.70;;;;;;;1.53;77.89;98118.89;108044;1273;69487;-69
2021/11/12 09:19:07;;;;;;;29.00;18.70;;;;;;;1.41;77.70;98116.43;108117;1272;59722;-69
2021/11/12 09:21:36;;;;;;;18.30;12.70;;;;;;;1.52;78.29;98113.41;108457;1269;59699;-70
2021/11/12 09:24:10;;;;;;;30.00;19.30;;;;;;;1.75;78.31;98110.25;108190;1272;71174;-70
2021/11/12 09:26:40;;;;;;;17.20;12.20;;;;;;;1.90;77.92;98109.00;108409;1266;68119;-70
2021/11/12 09:29:11;;;;;;;32.70;20.00;;;;;;;2.03;77.05;98108.29;108086;1271;69402;-70
2021/11/12 09:31:42;;;;;;;29.80;18.30;;;;;;;2.08;77.16;98104.02;108127;1272;59774;-71
2021/11/12 09:34:13;;;;;;;50.50;21.60;;;;;;;2.05;76.92;98101.70;108105;1272;59783;-70
2021/11/12 09:36:42;;;;;;;45.10;22.30;;;;;;;1.88;77.23;98099.23;108070;1273;72148;-70
2021/11/12 09:39:12;;;;;;;69.50;24.70;;;;;;;1.71;77.91;98100.03;108120;1272;68699;-71
2021/11/12 09:41:44;;;;;;;42.60;22.60;;;;;;;1.43;78.98;98093.04;108335;1269;69294;-70
2021/11/12 09:44:13;;;;;;;22.70;14.80;;;;;;;1.62;79.14;98088.92;108079;1272;59735;-70
2021/11/12 09:46:42;;;;;;;18.80;11.90;;;;;;;1.90;78.53;98083.90;108103;1272;59652;-70
2021/11/12 09:49:11;;;;;;;36.30;19.80;;;;;;;2.15;78.00;98080.80;108053;1272;71277;-71
2021/11/12 09:51:43;;;;;;;48.20;23.40;;;;;;;2.11;77.13;98077.98;108094;1272;68630;-70
2021/11/12 09:54:12;;;;;;;23.40;15.60;;;;;;;2.05;77.68;98080.89;108010;1271;68487;-70
2021/11/12 09:56:41;;;;;;;23.20;15.90;;;;;;;2.31;77.21;98075.86;108049;1275;59693;-70
2021/11/12 09:59:12;;;;;;;31.50;19.20;;;;;;;2.54;77.35;98073.80;108102;1271;59713;-70
2021/11/12 10:01:41;;;;;;;39.40;22.20;;;;;;;2.57;76.28;98072.31;108055;1275;71557;-70
2021/11/12 10:04:11;;;;;;;;;;;;;;;2.67;76.52;98070.81;108073;1272;68993;-71
2021/11/12 10:06:42;;;;;;;21.80;14.10;;;;;;;2.84;76.39;98067.19;108035;1275;69455;-71
2021/11/12 10:09:17;;;;;;;20.30;13.30;;;;;;;2.89;75.97;98062.73;108077;1272;59727;-70
2021/11/12 10:11:55;;;;;;;16.10;10.70;;;;;;;2.93;76.10;98055.04;108116;1271;59777;-71
2021/11/12 10:14:43;;;;;;;17.60;10.70;;;;;;;3.03;76.05;98054.89;108084;1274;71586;-70
2021/11/12 10:17:13;;;;;;;24.00;14.80;;;;;;;3.15;75.91;98050.20;108017;1275;68586;-70
2021/11/12 10:19:49;;;;;;;24.20;15.80;;;;;;;3.21;75.70;98044.64;108027;1272;70032;-71
2021/11/12 10:22:23;;;;;;;25.40;14.80;;;;;;;3.12;75.65;98037.73;108096;1272;59687;-71
2021/11/12 10:24:55;;;;;;;37.70;23.60;;;;;;;3.19;75.58;98034.54;108169;1275;59704;-71
2021/11/12 10:27:32;;;;;;;24.60;16.00;;;;;;;3.28;75.71;98029.78;108132;1272;71739;-70
2021/11/12 10:30:10;;;;;;;41.30;26.50;;;;;;;3.39;75.93;98029.77;108045;1272;69124;-71
2021/11/12 10:32:40;;;;;;;31.20;20.70;;;;;;;3.46;75.54;98025.02;108068;1271;69848;-71
2021/11/12 10:35:19;;;;;;;32.40;20.10;;;;;;;3.50;75.21;98022.48;107977;1273;59742;-70
2021/11/12 10:37:49;;;;;;;36.70;23.00;;;;;;;3.53;75.08;98022.20;108115;1272;59697;-69
2021/11/12 10:40:23;;;;;;;33.60;22.90;;;;;;;3.55;74.74;98018.86;108031;1275;71700;-71
2021/11/12 10:42:55;;;;;;;45.00;27.50;;;;;;;3.67;75.04;98017.95;108060;1275;68463;-69
2021/11/12 10:45:28;;;;;;;37.80;21.40;;;;;;;3.83;74.27;98014.25;108034;1272;68610;-70
2021/11/12 10:47:59;;;;;;;34.10;21.40;;;;;;;3.90;73.41;98009.17;108124;1272;59770;-70
2021/11/12 10:50:32;;;;;;;48.50;30.50;;;;;;;3.93;72.77;98004.90;108109;1272;59738;-73
2021/11/12 10:53:06;;;;;;;48.20;30.60;;;;;;;3.91;73.54;98000.81;108170;1272;70827;-74
2021/11/12 10:55:36;;;;;;;36.10;22.00;;;;;;;4.29;72.93;97998.38;108094;1272;68779;-71
2021/11/12 10:58:10;;;;;;;49.50;31.60;;;;;;;4.81;73.10;97992.36;108108;1272;69059;-70
2021/11/12 11:00:47;;;;;;;29.00;18.70;;;;;;;5.78;71.99;97984.80;107967;1275;59764;-72
2021/11/12 11:03:16;;;;;;;35.60;22.80;;;;;;;7.54;69.60;97979.98;108049;1275;59684;-71
2021/11/12 11:05:47;;;;;;;40.40;26.90;;;;;;;9.04;61.92;97982.15;108010;1273;72176;-74
2021/11/12 11:08:24;;;;;;;48.30;31.40;;;;;;;8.97;57.06;97982.17;108077;1272;68138;-72
2021/11/12 11:11:05;;;;;;;41.30;30.00;;;;;;;8.53;56.57;97977.54;108079;1272;68625;-71
2021/11/12 11:13:44;;;;;;;26.90;18.30;;;;;;;9.35;59.25;97973.86;108090;1273;59763;-72
2021/11/12 11:16:18;;;;;;;29.80;20.90;;;;;;;11.33;57.44;97971.55;108115;1272;59770;-72
2021/11/12 11:18:54;;;;;;;28.30;20.20;;;;;;;12.87;50.62;97970.79;107963;1275;71962;-72
2021/11/12 11:24:06;;;;;;;31.10;22.30;;;;;;;14.79;47.42;97970.57;107967;1275;69265;-72
2021/11/12 11:26:43;;;;;;;28.60;19.90;;;;;;;15.52;41.92;97971.94;108038;1275;59723;-71
2021/11/12 11:29:16;;;;;;;26.40;20.40;;;;;;;16.34;43.45;97967.56;108024;1271;59633;-71
2021/11/12 11:31:45;;;;;;;21.50;16.10;;;;;;;17.31;41.83;97968.56;107975;1275;71079;-72
2021/11/12 11:34:14;;;;;;;36.40;27.60;;;;;;;17.97;39.13;97961.43;107974;1275;68633;-72
2021/11/12 11:36:44;;;;;;;37.10;27.20;;;;;;;17.59;35.61;97966.64;108085;1275;68694;-72
2021/11/12 11:39:17;;;;;;;33.30;27.90;;;;;;;16.00;36.22;97956.54;108048;1275;59769;-73
2021/11/12 11:41:46;;;;;;;36.80;27.90;;;;;;;16.20;37.65;97955.53;107966;1272;59770;-72
2021/11/12 11:44:20;;;;;;;29.80;22.30;;;;;;;16.68;38.18;97955.03;108015;1274;71722;-74
2021/11/12 11:46:51;;;;;;;34.00;26.00;;;;;;;16.79;35.82;97953.88;108069;1274;68695;-72
2021/11/12 11:49:24;;;;;;;34.80;26.30;;;;;;;17.29;36.17;97956.75;108124;1272;69492;-73
2021/11/12 11:52:02;;;;;;;30.00;20.90;;;;;;;17.78;37.37;97953.06;108080;1273;59785;-71
2021/11/12 11:54:44;;;;;;;33.60;23.50;;;;;;;18.77;36.90;97948.77;107897;1275;59752;-73
2021/11/12 11:57:17;;;;;;;29.70;22.10;;;;;;;19.68;36.05;97946.06;108133;1273;71681;-71
2021/11/12 11:59:47;;;;;;;29.00;20.50;;;;;;;20.60;35.33;97938.67;107894;1274;68701;-72
2021/11/12 12:02:18;;;;;;;33.00;24.20;;;;;;;21.24;33.14;97933.98;108072;1272;70010;-75
2021/11/12 12:04:57;;;;;;;50.10;36.00;;;;;;;21.44;31.92;97932.38;107965;1272;59658;-73
2021/11/12 12:07:39;;;;;;;45.80;31.20;;;;;;;19.39;30.32;97922.47;108037;1272;59704;-72
2021/11/12 12:10:16;;;;;;;45.80;32.30;;;;;;;18.16;32.63;97917.29;108075;1272;71597;-73
2021/11/12 12:12:53;;;;;;;54.30;40.60;;;;;;;16.43;35.47;97918.09;108192;1273;67834;-73
2021/11/12 12:15:22;;;;;;;55.10;39.50;;;;;;;14.78;38.53;97914.30;108366;1273;68432;-73
2021/11/12 12:18:10;;;;;;;63.60;42.00;;;;;;;14.37;39.73;97911.48;108137;1272;59782;-72
2021/11/12 12:35:09;;;;;;;65.50;45.10;;;;;;;9.78;51.14;97905.17;108426;1271;59763;-72
2021/11/12 13:19:33;;;;;;;59.70;40.90;;;;;;;8.17;56.06;97876.54;107589;1278;59710;-72
2021/11/12 13:21:33;;;;;;;60.70;40.60;;;;;;;8.74;54.56;97875.05;107460;1281;72063;-72
2021/11/12 13:24:18;;;;;;;61.20;41.30;;;;;;;8.37;55.53;97878.69;107383;1283;68619;-72
2021/11/12 13:27:01;;;;;;;62.00;38.10;;;;;;;8.93;54.34;97878.27;108099;1272;68665;-71
2021/11/12 13:29:31;;;;;;;58.50;39.20;;;;;;;10.08;51.40;97874.73;108057;1272;59712;-72
2021/11/12 13:32:04;;;;;;;57.40;39.20;;;;;;;9.69;51.32;97878.22;108118;1272;59650;-72
2021/11/12 13:34:44;;;;;;;57.50;40.90;;;;;;;8.70;54.42;97879.42;108122;1272;71958;-73
2021/11/12 13:37:23;;;;;;;61.00;40.30;;;;;;;7.81;57.50;97877.09;108049;1274;67819;-72
2021/11/12 13:40:04;;;;;;;58.90;41.40;;;;;;;7.99;57.39;97875.26;108073;1274;68597;-72
2021/11/12 13:42:47;;;;;;;57.30;39.10;;;;;;;7.71;58.15;97871.26;108088;1274;59665;-71
2021/11/12 13:45:22;;;;;;;58.20;39.10;;;;;;;7.47;59.39;97871.33;107872;1273;59789;-73
2021/11/12 13:48:17;;;;;;;58.70;39.00;;;;;;;8.01;57.80;97868.93;108056;1272;71117;-72
2021/11/12 13:50:55;;;;;;;47.10;30.50;;;;;;;7.79;58.49;97866.27;108046;1275;67859;-71
2021/11/12 13:53:26;;;;;;;60.90;40.40;;;;;;;7.86;58.21;97865.94;108074;1274;67712;-71
2021/11/12 13:55:57;;;;;;;61.70;39.80;;;;;;;7.24;60.30;97863.32;108113;1274;59737;-71
2021/11/12 13:58:28;;;;;;;44.50;27.30;;;;;;;7.83;58.49;97870.58;108067;1274;59764;-72
2021/11/12 14:00:58;;;;;;;45.90;31.00;;;;;;;8.05;57.59;97866.41;107944;1275;70642;-71
2021/11/12 14:03:37;;;;;;;63.20;39.70;;;;;;;7.52;59.23;97868.96;108232;1274;68908;-72
2021/11/12 14:06:11;;;;;;;59.50;39.80;;;;;;;7.27;60.35;97867.88;108105;1272;68652;-74
2021/11/12 14:08:46;;;;;;;63.40;39.20;;;;;;;6.58;62.57;97869.60;107862;1274;59754;-72
2021/11/12 14:11:27;;;;;;;70.20;41.90;;;;;;;5.68;66.00;97867.98;108136;1272;59765;-71
2021/11/12 14:14:01;;;;;;;70.20;42.80;;;;;;;4.56;70.61;97871.48;108146;1275;71625;-72
2021/11/12 14:16:54;;;;;;;74.70;46.40;;;;;;;4.36;71.45;97868.52;108055;1275;68543;-71
2021/11/12 14:19:46;;;;;;;86.10;45.20;;;;;;;3.83;74.09;97871.30;108122;1272;69233;-71
2021/11/12 14:22:34;;;;;;;81.60;48.60;;;;;;;3.27;76.64;97872.68;107979;1275;59768;-73
2021/11/12 14:25:20;;;;;;;105.60;54.20;;;;;;;2.86;78.71;97875.70;108105;1274;59755;-73
2021/11/12 14:31:31;;;;;;;203.60;66.30;;;;;;;2.13;82.58;97878.12;107967;1272;68649;-72
2021/11/12 14:37:00;;;;;;;341.50;82.00;;;;;;;1.67;85.83;97880.56;108065;1272;59732;-73
2021/11/12 14:45:14;;;;;;;77.10;40.20;;;;;;;1.53;87.19;97881.45;108082;1274;68585;-72
2021/11/12 14:48:32;;;;;;;79.20;40.90;;;;;;;1.73;84.25;97880.54;108121;1272;69463;-71
2021/11/12 14:50:39;;;;;;;;;;;;;;;1.76;84.21;97879.77;108034;1274;59764;-73
2021/11/12 14:53:55;;;;;;;;;;;;;;;1.57;85.84;97878.43;108092;1272;59716;-73
2021/11/12 14:59:05;;;;;;;;;;;;;;;1.70;82.72;97869.65;108070;1275;68660;-71
2021/11/12 15:01:37;;;;;;;;;;;;;;;1.64;84.68;97871.18;108116;1274;69454;-74
2021/11/12 15:04:07;;;;;;;;;;;;;;;1.54;85.70;97879.02;108173;1274;59757;-72
2021/11/12 15:06:36;;;;;;;;;;;;;;;1.62;83.51;97879.51;107992;1275;59745;-72
2021/11/12 15:09:08;;;;;;;;;;;;;;;1.68;82.09;97881.02;108113;1274;72144;-72
2021/11/12 15:11:37;;;;;;;;;;;;;;;1.74;82.08;97881.36;108049;1275;67863;-71
2021/11/12 15:16:43;;;;;;;;;;;;;;;1.85;79.76;97887.92;108144;1275;60125;-72
2021/11/12 15:19:15;;;;;;;;;;;;;;;1.87;79.41;97888.36;108130;1274;60221;-72
2021/11/12 15:29:37;;;;;;;;;;;;;;;1.84;78.37;97889.81;108015;1272;59684;-70
2021/11/12 15:35:13;;;;;;;;;;;;;;;1.77;78.19;97891.92;107759;1279;70703;-71
2021/11/12 15:38:03;;;;;;;;;;;;;;;1.73;78.46;97895.32;107921;1276;69156;-69
2021/11/12 15:40:44;;;;;;;;;;;;;;;1.64;79.37;97895.40;107958;1276;69492;-71
2021/11/12 15:43:20;;;;;;;;;;;;;;;1.43;82.19;97901.19;108006;1275;59758;-70
2021/11/12 15:45:53;;;;;;;;;;;;;;;1.25;83.20;97901.84;107989;1274;59770;-69
2021/11/12 15:48:24;;;;;;;;;;;;;;;1.19;81.19;97901.67;108018;1272;72156;-71
2021/11/12 15:58:58;;;;;;;;;;;;;;;1.05;81.90;97911.33;108202;1273;59748;-70
2021/11/12 16:07:00;;;;;;;;;;;;;;;0.93;82.67;97909.76;108283;1273;68774;-72
2021/11/12 16:09:43;;;;;;;;;;;;;;;0.93;81.23;97909.92;108176;1272;59767;-71
2021/11/12 16:12:19;;;;;;;;;;;;;;;0.91;83.39;97915.46;108146;1274;59778;-72
2021/11/12 16:15:14;;;;;;;;;;;;;;;0.84;84.97;97918.06;108043;1274;71954;-70
2021/11/12 16:17:53;;;;;;;;;;;;;;;0.83;83.54;97919.45;108133;1272;69388;-72
2021/11/12 16:25:41;;;;;;;;;;;;;;;0.86;81.36;97917.30;108239;1273;59695;-74
2021/11/12 16:28:17;;;;;;;;;;;;;;;0.89;80.65;97918.61;108055;1275;71467;-71
2021/11/12 16:30:57;;;;;;;;;;;;;;;0.91;80.56;97920.45;108057;1275;67668;-72